الصفحة الرئيسية
METAR-TAF:

METAR-TAF

مطار :

بروناي, بروناي

دائرة عرض: 04-56N, خط طول: 114-56E, ارتفاع: 22 متر

مراقبة الطقس الحالي

تاريخ ووقت الإصدار 16 دقيقة قبل الساعة 18:00UTC
ريح 2 عقدة من الغرب/الجنوب الغربي
درجة الحرارة 26°درجة مئوية
الرطوبة 94%
ضغط 1011 hPa
الرؤية 10 كم أو أكثر
غيوم قليلة على ارتفاع 1500 قدم
غيوم مفككة على ارتفاع 30000 قدم

METAR: WBSB 161800Z 24002KT 9999 FEW015 BKN300 26/25 Q1011 NOSIG

زمن: 02:16 (18:16 UTC)

توقعات

تاريخ ووقت الإصدار 1ساعة و 16 دقيقة قبل الساعة 17:00UTC
التوقعات صالحة من16 الساعة 18 UTC إلى 18 الساعة 00 UTC
ريح 1 عقدة من الجنوب/الجنوب الغربي
الرؤية 10 كم أو أكثر
غيوم قليلة على ارتفاع 1500 قدم
أصبح
من 17 الساعة 03 UTC إلى 17 الساعة 05 UTC
ريح 10 عقدة من الشمال/الشمال الغربي
غيوم قليلة على ارتفاع 1600 قدم
غيوم قليلة على ارتفاع 1700 قدم, مزنة ركامية.

TAF: WBSB 161700Z 1618/1800 20001KT 9999 FEW015 BECMG 1703/1705 34010KT FEW016 FEW017CB

أرصاد الطقس والتوقعات من أكثر من 4000 مطار (تقارير الطقس للمطار METAR والتنبؤ بالطقس بالمطارTAF).

المحطات المتاحة هي النقط الصفراء والحمراء على الخريطة.

حرك المؤشر فوق النقطة لمعرفة اسم المحطة.

ثم انقر لمعرفة أرصاد وتوقعات الطقس.

لتغيير الخارطة: اضغط على الأزرار الخضراء مع رمز الصليب الأسود للتكبير. على الزر الأخضر مع شرطة للتصغير، أو على الأسهم الخضراء للخرائط المجاورة.


METAR-TAF: